Time;durP1;ratioP1;P1;durP2;ratioP2;P2;SDS_P1;SDS_P2;PMS_P1;PMS_P2;Temp;Humidity;BMP_temperature;BMP_pressure;BME280_temperature;BME280_humidity;BME280_pressure;Samples;Min_cycle;Max_cycle;Signal;HPM_P1;HPM_P2
2023/04/04 00:00:35;;;;;;;14.87;3.30;;;20.80;77.20;;;;;;5074187;28;20232;-66
2023/04/04 00:03:03;;;;;;;7.73;3.40;;;20.90;77.00;;;;;;5072739;28;20528;-65
2023/04/04 00:05:30;;;;;;;11.83;3.47;;;21.00;76.80;;;;;;5073755;28;20676;-65
2023/04/04 00:07:57;;;;;;;13.90;3.20;;;21.30;76.40;;;;;;5073581;28;20569;-65
2023/04/04 00:10:25;;;;;;;10.77;3.17;;;21.70;76.00;;;;;;5073736;28;20249;-69
2023/04/04 00:12:52;;;;;;;12.63;3.37;;;22.00;74.70;;;;;;5073645;28;20218;-67
2023/04/04 00:15:20;;;;;;;15.37;3.40;;;22.00;74.00;;;;;;5073673;28;20202;-66
2023/04/04 00:17:47;;;;;;;9.30;2.70;;;22.30;73.10;;;;;;5072849;28;20285;-67
2023/04/04 00:20:14;;;;;;;14.00;3.30;;;22.50;70.90;;;;;;5072488;28;20179;-69
2023/04/04 00:22:42;;;;;;;7.67;2.57;;;22.50;70.60;;;;;;5073010;28;20175;-70
2023/04/04 00:25:09;;;;;;;8.93;2.23;;;22.80;69.90;;;;;;5073560;28;20167;-70
2023/04/04 00:27:37;;;;;;;8.87;1.97;;;22.80;69.80;;;;;;5073512;28;20266;-68
2023/04/04 00:30:05;;;;;;;10.63;2.07;;;23.10;68.20;;;;;;5073289;28;20774;-72
2023/04/04 00:32:32;;;;;;;9.67;2.37;;;23.00;67.10;;;;;;5073370;28;20171;-68
2023/04/04 00:34:59;;;;;;;10.47;1.83;;;23.10;67.50;;;;;;5073271;28;20171;-66
2023/04/04 00:37:27;;;;;;;10.80;2.40;;;23.30;66.20;;;;;;5073366;28;20187;-67
2023/04/04 00:39:54;;;;;;;6.70;2.10;;;23.40;66.60;;;;;;5089039;28;20543;-67
2023/04/04 00:42:22;;;;;;;12.03;2.13;;;23.70;66.40;;;;;;5073421;28;20217;-67
2023/04/04 00:44:51;;;;;;;8.93;2.30;;;23.90;65.90;;;;;;5073235;28;20608;-66
2023/04/04 00:47:22;;;;;;;8.07;1.90;;;24.10;65.20;;;;;;5071984;28;20209;-66
2023/04/04 00:49:50;;;;;;;10.50;2.27;;;24.10;65.20;;;;;;5071385;28;20179;-70
2023/04/04 00:52:17;;;;;;;7.53;2.00;;;24.30;65.10;;;;;;5064861;28;20191;-73
2023/04/04 00:54:45;;;;;;;7.50;2.53;;;24.40;64.10;;;;;;5066622;28;20195;-73
2023/04/04 00:57:12;;;;;;;5.23;1.50;;;24.30;63.10;;;;;;5071967;28;20926;-68
2023/04/04 00:59:40;;;;;;;7.20;2.03;;;24.40;61.60;;;;;;5070982;28;20202;-73
2023/04/04 01:02:08;;;;;;;7.00;2.00;;;24.50;61.70;;;;;;5071559;28;20320;-70
2023/04/04 01:04:36;;;;;;;9.50;1.90;;;24.50;61.20;;;;;;5070977;28;20176;-71
2023/04/04 01:07:04;;;;;;;7.30;1.93;;;24.70;60.60;;;;;;5065997;28;20188;-67
2023/04/04 01:09:31;;;;;;;10.23;2.33;;;25.00;59.40;;;;;;5071737;28;20599;-66
2023/04/04 01:11:59;;;;;;;5.73;1.63;;;25.10;58.90;;;;;;5071802;28;20225;-71
2023/04/04 01:14:27;;;;;;;6.50;2.00;;;25.20;59.10;;;;;;5072089;28;20187;-72
2023/04/04 01:16:54;;;;;;;11.37;2.23;;;25.60;58.10;;;;;;5072392;28;20218;-73
2023/04/04 01:19:36;;;;;;;9.97;2.33;;;25.80;56.20;;;;;;5071840;28;20179;-69
2023/04/04 01:22:04;;;;;;;8.43;2.03;;;25.70;56.40;;;;;;5071899;28;20225;-66
2023/04/04 01:24:35;;;;;;;7.13;2.03;;;25.20;57.90;;;;;;5072314;28;20179;-66
2023/04/04 01:27:02;;;;;;;9.33;1.93;;;25.10;58.60;;;;;;5072631;28;20258;-65
2023/04/04 01:29:30;;;;;;;11.57;1.80;;;24.80;60.10;;;;;;5072571;28;20233;-65
2023/04/04 01:32:18;;;;;;;5.07;1.57;;;24.50;60.20;;;;;;5068271;28;20673;-65
2023/04/04 01:34:51;;;;;;;3.67;1.50;;;24.40;59.30;;;;;;5062447;28;20222;-66
2023/04/04 01:37:50;;;;;;;12.67;1.50;;;24.30;59.50;;;;;;5064710;28;20267;-68
2023/04/04 01:40:23;;;;;;;6.10;1.40;;;24.50;58.60;;;;;;5041703;28;20253;-65
2023/04/04 01:42:52;;;;;;;7.17;1.60;;;25.10;58.30;;;;;;5064633;28;20253;-65
2023/04/04 01:45:21;;;;;;;7.93;1.50;;;25.50;56.80;;;;;;5072055;28;20273;-67
2023/04/04 01:47:49;;;;;;;4.83;1.10;;;25.70;55.40;;;;;;5071498;28;20232;-66
2023/04/04 01:50:16;;;;;;;9.33;1.43;;;26.00;55.90;;;;;;5071302;28;20233;-67
2023/04/04 01:52:44;;;;;;;6.20;0.90;;;26.20;54.10;;;;;;5061127;28;20183;-71
2023/04/04 01:55:11;;;;;;;6.17;1.30;;;26.40;53.80;;;;;;5067662;28;20203;-65
2023/04/04 01:57:38;;;;;;;6.50;1.10;;;26.10;53.70;;;;;;5071212;28;20294;-70
2023/04/04 02:00:06;;;;;;;5.33;1.00;;;25.50;55.30;;;;;;5071883;28;20167;-77
2023/04/04 02:02:34;;;;;;;5.87;1.07;;;25.10;56.80;;;;;;5071901;28;20187;-66
2023/04/04 02:05:01;;;;;;;6.20;1.30;;;25.00;57.00;;;;;;5075794;28;20317;-66
2023/04/04 02:07:29;;;;;;;6.43;1.50;;;24.80;57.70;;;;;;5074729;28;20581;-67
2023/04/04 02:09:56;;;;;;;5.20;1.13;;;24.70;57.70;;;;;;5074968;28;20193;-66
2023/04/04 02:12:29;;;;;;;8.07;1.63;;;24.50;58.20;;;;;;5073515;28;20176;-65
2023/04/04 02:14:57;;;;;;;4.13;1.17;;;24.90;57.00;;;;;;5075023;28;20183;-67
2023/04/04 02:17:27;;;;;;;4.83;1.00;;;25.20;56.60;;;;;;5075219;28;20187;-67
2023/04/04 02:19:55;;;;;;;4.63;1.10;;;25.90;56.50;;;;;;5073433;28;20233;-67
2023/04/04 02:22:22;;;;;;;5.97;1.40;;;26.40;54.30;;;;;;5073118;28;21000;-68
2023/04/04 02:24:50;;;;;;;7.03;1.20;;;26.90;54.10;;;;;;5076016;28;20194;-66
2023/04/04 02:27:17;;;;;;;4.83;1.07;;;26.90;52.70;;;;;;5072257;28;20386;-71
2023/04/04 02:29:44;;;;;;;9.57;1.27;;;26.80;52.90;;;;;;5070370;28;20695;-69
2023/04/04 02:32:12;;;;;;;5.80;1.13;;;27.20;51.20;;;;;;5071944;28;20891;-67
2023/04/04 02:34:39;;;;;;;7.57;1.37;;;27.50;51.60;;;;;;5074448;28;20232;-70
2023/04/04 02:37:07;;;;;;;7.17;1.33;;;27.90;50.10;;;;;;5070777;28;20857;-70
2023/04/04 02:39:35;;;;;;;7.77;1.37;;;27.50;51.50;;;;;;5073201;28;20209;-68
2023/04/04 02:42:02;;;;;;;7.87;1.17;;;26.80;52.90;;;;;;5074609;28;20642;-68
2023/04/04 02:44:29;;;;;;;4.07;1.40;;;26.30;53.90;;;;;;5075715;28;20187;-65
2023/04/04 02:46:56;;;;;;;5.47;1.27;;;26.60;53.60;;;;;;5071577;28;20216;-69
2023/04/04 02:49:24;;;;;;;7.80;1.30;;;26.90;51.20;;;;;;5074324;28;20645;-67
2023/04/04 02:51:53;;;;;;;3.20;1.10;;;27.30;51.40;;;;;;5074462;28;20839;-66
2023/04/04 02:54:21;;;;;;;5.77;1.60;;;27.60;50.30;;;;;;5074454;28;20191;-69
2023/04/04 02:56:48;;;;;;;9.57;1.83;;;27.50;51.00;;;;;;5068830;28;20254;-70
2023/04/04 02:59:16;;;;;;;6.60;1.17;;;26.90;52.30;;;;;;5074255;28;20185;-67
2023/04/04 03:01:44;;;;;;;7.53;1.60;;;26.10;53.90;;;;;;5070991;28;20263;-66
2023/04/04 03:04:12;;;;;;;7.30;1.40;;;25.80;55.20;;;;;;5074468;28;20183;-69
2023/04/04 03:06:40;;;;;;;5.57;1.13;;;26.00;55.50;;;;;;5073410;28;20180;-71
2023/04/04 03:09:08;;;;;;;9.40;1.20;;;26.80;52.60;;;;;;5073237;28;20227;-67
2023/04/04 03:11:35;;;;;;;4.07;1.17;;;27.30;51.60;;;;;;5071155;28;20198;-69
2023/04/04 03:14:02;;;;;;;5.93;1.10;;;27.30;51.30;;;;;;5072764;28;20548;-68
2023/04/04 03:16:30;;;;;;;6.27;1.37;;;27.20;52.10;;;;;;5073774;28;20223;-66
2023/04/04 03:18:57;;;;;;;7.47;1.40;;;27.00;51.50;;;;;;5073877;28;20661;-65
2023/04/04 03:21:24;;;;;;;7.43;1.43;;;26.70;52.70;;;;;;5073443;28;20191;-66
2023/04/04 03:23:52;;;;;;;6.60;1.10;;;26.30;54.10;;;;;;5073852;28;20180;-68
2023/04/04 03:26:19;;;;;;;4.87;1.30;;;25.70;55.80;;;;;;5072240;28;20180;-67
2023/04/04 03:28:46;;;;;;;5.03;1.30;;;25.40;56.60;;;;;;5073941;28;20202;-66
2023/04/04 03:31:14;;;;;;;3.87;1.20;;;25.20;57.80;;;;;;5072335;28;20226;-66
2023/04/04 03:33:43;;;;;;;7.10;1.33;;;25.10;57.30;;;;;;5072945;28;20218;-66
2023/04/04 03:36:11;;;;;;;6.07;1.10;;;25.00;57.40;;;;;;5073544;28;20215;-67
2023/04/04 03:38:39;;;;;;;5.77;1.10;;;25.00;57.40;;;;;;5073475;28;20202;-67
2023/04/04 03:41:07;;;;;;;8.77;1.40;;;25.00;57.50;;;;;;5073608;28;20229;-65
2023/04/04 03:43:35;;;;;;;6.33;1.30;;;25.00;58.00;;;;;;5071810;28;20195;-66
2023/04/04 03:46:03;;;;;;;5.23;1.30;;;25.40;56.90;;;;;;5071767;28;20552;-68
2023/04/04 03:48:31;;;;;;;4.57;1.30;;;26.00;55.10;;;;;;5072390;28;20542;-68
2023/04/04 03:50:58;;;;;;;4.80;1.03;;;26.80;53.20;;;;;;5072237;28;20179;-68
2023/04/04 03:53:27;;;;;;;8.47;1.10;;;27.70;50.40;;;;;;5071209;28;20676;-67
2023/04/04 03:55:56;;;;;;;4.33;1.13;;;28.10;49.50;;;;;;5069718;28;20400;-67
2023/04/04 03:58:24;;;;;;;5.57;1.15;;;28.50;48.90;;;;;;5072740;28;20194;-66
2023/04/04 04:00:51;;;;;;;5.20;1.10;;;28.80;47.50;;;;;;5073631;28;20734;-68
2023/04/04 04:03:20;;;;;;;7.38;1.30;;;28.50;48.10;;;;;;5068749;28;20189;-67
2023/04/04 04:05:47;;;;;;;10.65;1.30;;;28.80;48.60;;;;;;5072490;28;20249;-71
2023/04/04 04:08:14;;;;;;;4.68;1.02;;;28.80;47.60;;;;;;5070170;28;20223;-66
2023/04/04 04:10:42;;;;;;;6.93;1.38;;;28.50;48.90;;;;;;5073078;28;20187;-68
2023/04/04 04:13:09;;;;;;;6.63;1.00;;;27.60;50.60;;;;;;5072921;28;20266;-67
2023/04/04 04:15:37;;;;;;;2.77;1.17;;;27.00;52.20;;;;;;5072623;28;20456;-66
2023/04/04 04:18:04;;;;;;;4.37;0.93;;;26.30;53.60;;;;;;5072895;28;20191;-67
2023/04/04 04:20:31;;;;;;;10.40;1.10;;;27.30;52.40;;;;;;5072678;28;20191;-67
2023/04/04 04:22:59;;;;;;;5.18;1.30;;;28.10;50.20;;;;;;5070422;28;20278;-67
2023/04/04 04:25:26;;;;;;;6.17;1.60;;;28.60;48.20;;;;;;5072216;28;20185;-67
2023/04/04 04:27:57;;;;;;;5.87;1.10;;;28.60;48.00;;;;;;5071424;28;20191;-69
2023/04/04 04:30:24;;;;;;;6.47;1.25;;;28.40;48.10;;;;;;5071893;28;20171;-66
2023/04/04 04:32:52;;;;;;;3.90;1.30;;;28.80;48.60;;;;;;5069722;28;20575;-67
2023/04/04 04:35:19;;;;;;;4.15;1.00;;;29.30;47.60;;;;;;5071221;28;20230;-65
2023/04/04 04:37:46;;;;;;;5.13;0.93;;;28.30;48.90;;;;;;5071476;28;20234;-68
2023/04/04 04:40:15;;;;;;;8.73;1.40;;;28.30;48.90;;;;;;5071185;28;20668;-67
2023/04/04 04:42:46;;;;;;;5.13;1.50;;;29.20;47.00;;;;;;5071196;28;20195;-66
2023/04/04 04:45:13;;;;;;;6.97;1.30;;;29.00;48.00;;;;;;5072438;28;20176;-70
2023/04/04 04:47:40;;;;;;;3.97;1.00;;;28.60;48.40;;;;;;5067107;28;20229;-67
2023/04/04 04:50:08;;;;;;;4.65;1.08;;;28.60;49.30;;;;;;5068743;28;20183;-67
2023/04/04 04:52:39;;;;;;;4.60;1.20;;;29.50;47.40;;;;;;5072095;28;20218;-66
2023/04/04 04:55:07;;;;;;;5.53;2.03;;;29.80;46.40;;;;;;5067307;28;20195;-67
2023/04/04 04:57:34;;;;;;;5.78;1.35;;;30.20;44.50;;;;;;5072133;28;20191;-68
2023/04/04 05:00:05;;;;;;;3.00;1.17;;;30.30;45.00;;;;;;5071803;28;20179;-65
2023/04/04 05:02:32;;;;;;;4.97;1.73;;;29.70;46.20;;;;;;5071421;28;20191;-67
2023/04/04 05:05:00;;;;;;;4.28;1.20;;;29.70;47.00;;;;;;5071549;28;20176;-66
2023/04/04 05:07:27;;;;;;;3.72;0.95;;;30.20;46.00;;;;;;5068816;28;20621;-69
2023/04/04 05:09:55;;;;;;;5.40;0.98;;;31.20;43.80;;;;;;5067767;28;20202;-69
2023/04/04 05:12:22;;;;;;;6.45;1.35;;;31.10;44.30;;;;;;5073943;28;20649;-67
2023/04/04 05:14:50;;;;;;;6.57;1.48;;;30.30;47.60;;;;;;5066112;28;20179;-68
2023/04/04 05:17:17;;;;;;;17.10;3.75;;;29.00;50.30;;;;;;5069361;28;20229;-67
2023/04/04 05:19:45;;;;;;;9.25;1.98;;;28.60;50.20;;;;;;5070003;28;20179;-69
2023/04/04 05:22:12;;;;;;;6.30;1.33;;;27.80;53.40;;;;;;5072316;28;20237;-68
2023/04/04 05:24:41;;;;;;;7.37;1.53;;;26.60;56.80;;;;;;5071838;28;20547;-68
2023/04/04 05:27:09;;;;;;;4.87;1.27;;;26.30;57.50;;;;;;5071851;28;20264;-67
2023/04/04 05:29:36;;;;;;;5.83;1.07;;;26.30;57.90;;;;;;5070172;28;20278;-67
2023/04/04 05:32:04;;;;;;;8.10;1.30;;;26.80;57.20;;;;;;5064279;28;20182;-66
2023/04/04 05:34:31;;;;;;;7.87;1.50;;;27.40;54.40;;;;;;5072582;28;20303;-68
2023/04/04 05:36:58;;;;;;;12.27;1.33;;;28.70;51.90;;;;;;5070196;28;20225;-68
2023/04/04 05:39:26;;;;;;;9.23;1.77;;;28.00;52.00;;;;;;5071111;28;20178;-68
2023/04/04 05:41:53;;;;;;;4.13;1.20;;;28.00;51.70;;;;;;5071290;28;20183;-68
2023/04/04 05:44:20;;;;;;;7.23;1.43;;;28.70;51.40;;;;;;5071560;28;20180;-68
2023/04/04 05:46:48;;;;;;;7.63;1.57;;;28.60;50.70;;;;;;5071297;28;20204;-69
2023/04/04 05:49:15;;;;;;;8.77;1.10;;;28.20;51.60;;;;;;5071371;28;20343;-67
2023/04/04 05:51:43;;;;;;;9.33;1.40;;;28.10;52.20;;;;;;5067674;28;20190;-69
2023/04/04 05:54:10;;;;;;;12.20;1.50;;;28.70;50.40;;;;;;5071940;28;20174;-70
2023/04/04 05:56:37;;;;;;;8.02;1.33;;;29.10;50.70;;;;;;5074027;28;20238;-67
2023/04/04 05:59:04;;;;;;;6.97;1.50;;;29.60;48.00;;;;;;5070134;28;20262;-66
2023/04/04 06:01:32;;;;;;;8.15;1.75;;;28.50;50.80;;;;;;5069760;28;20549;-67
2023/04/04 06:04:02;;;;;;;11.20;1.90;;;27.60;53.40;;;;;;5071558;28;20182;-66
2023/04/04 06:06:30;;;;;;;6.07;1.37;;;26.90;55.50;;;;;;5068517;28;20171;-66
2023/04/04 06:08:58;;;;;;;5.20;1.30;;;26.60;56.30;;;;;;5070914;28;20234;-65
2023/04/04 06:11:26;;;;;;;7.23;1.50;;;26.30;56.70;;;;;;5072871;28;20233;-66
2023/04/04 06:13:53;;;;;;;8.17;1.50;;;25.60;59.10;;;;;;5070636;28;20211;-71
2023/04/04 06:16:21;;;;;;;7.60;1.70;;;24.80;61.30;;;;;;5063563;28;20206;-66
2023/04/04 06:18:49;;;;;;;3.40;1.03;;;24.60;60.90;;;;;;5069280;28;20183;-67
2023/04/04 06:21:16;;;;;;;5.20;1.33;;;24.40;61.80;;;;;;5066850;28;20206;-70
2023/04/04 06:23:43;;;;;;;6.27;1.60;;;25.50;59.10;;;;;;5071902;28;20187;-67
2023/04/04 06:26:11;;;;;;;6.27;1.33;;;25.40;59.40;;;;;;5068929;28;20222;-70
2023/04/04 06:28:45;;;;;;;8.87;1.40;;;26.70;56.50;;;;;;5070363;28;20182;-66
2023/04/04 06:31:13;;;;;;;4.33;1.10;;;27.10;54.60;;;;;;5069665;28;20547;-67
2023/04/04 06:33:40;;;;;;;9.07;1.53;;;27.30;54.30;;;;;;5063149;28;20178;-72
2023/04/04 06:36:07;;;;;;;5.30;1.57;;;27.80;53.00;;;;;;5071064;28;20306;-68
2023/04/04 06:38:35;;;;;;;8.43;1.63;;;27.60;53.00;;;;;;5069421;28;20728;-71
2023/04/04 06:41:02;;;;;;;8.90;2.50;;;27.80;53.50;;;;;;5069024;28;20198;-67
2023/04/04 06:43:30;;;;;;;7.77;1.73;;;27.20;54.70;;;;;;5070400;28;20175;-67
2023/04/04 06:45:57;;;;;;;7.57;1.73;;;26.10;57.50;;;;;;5068800;28;20244;-73
2023/04/04 06:48:25;;;;;;;6.87;1.80;;;25.80;57.60;;;;;;5070188;28;20187;-70
2023/04/04 06:50:52;;;;;;;7.70;1.77;;;26.10;57.90;;;;;;5072620;28;20729;-67
2023/04/04 06:53:19;;;;;;;4.83;1.20;;;26.00;57.10;;;;;;5073779;28;20187;-66
2023/04/04 06:55:47;;;;;;;6.10;1.30;;;26.60;55.70;;;;;;5072298;28;20207;-66
2023/04/04 06:58:14;;;;;;;5.50;1.23;;;26.40;56.40;;;;;;5072343;28;20175;-68
2023/04/04 07:00:41;;;;;;;5.93;1.47;;;26.20;56.60;;;;;;5071665;28;20543;-67
2023/04/04 07:03:08;;;;;;;6.50;1.37;;;25.10;60.50;;;;;;5070403;28;20183;-65
2023/04/04 07:05:40;;;;;;;8.33;1.43;;;24.90;61.10;;;;;;5068262;28;20289;-66
2023/04/04 07:08:08;;;;;;;9.87;1.30;;;25.40;59.60;;;;;;5069450;28;20231;-69
2023/04/04 07:10:35;;;;;;;7.10;1.60;;;25.30;59.90;;;;;;5070271;28;20191;-65
2023/04/04 07:13:03;;;;;;;5.73;1.40;;;24.70;62.60;;;;;;5073868;28;20229;-68
2023/04/04 07:15:30;;;;;;;6.47;1.30;;;24.60;64.10;;;;;;5073632;28;20211;-66
2023/04/04 07:17:57;;;;;;;7.03;1.40;;;25.00;62.30;;;;;;5068473;28;20201;-67
2023/04/04 07:20:27;;;;;;;10.00;1.63;;;25.10;62.20;;;;;;5074426;28;20569;-68
2023/04/04 07:22:54;;;;;;;7.07;1.70;;;24.50;63.40;;;;;;5073918;28;20282;-66
2023/04/04 07:25:22;;;;;;;6.80;1.37;;;24.10;65.10;;;;;;5073607;28;20214;-66
2023/04/04 07:27:49;;;;;;;8.93;1.70;;;24.00;65.70;;;;;;5073426;28;20518;-66
2023/04/04 07:30:18;;;;;;;6.83;1.20;;;23.90;65.90;;;;;;5070505;28;20178;-70
2023/04/04 07:32:46;;;;;;;8.13;1.60;;;23.70;67.10;;;;;;5069783;28;20395;-67
2023/04/04 07:35:13;;;;;;;9.60;1.43;;;23.50;67.60;;;;;;5073109;28;20211;-67
2023/04/04 07:37:41;;;;;;;9.80;1.67;;;23.20;68.70;;;;;;5075019;28;20593;-69
2023/04/04 07:40:08;;;;;;;5.77;1.20;;;23.00;69.60;;;;;;5073165;28;20538;-66
2023/04/04 07:42:36;;;;;;;6.63;1.40;;;22.90;70.10;;;;;;5064718;28;20218;-65
2023/04/04 07:45:04;;;;;;;10.57;1.60;;;23.00;69.90;;;;;;5069395;28;20180;-70
2023/04/04 07:47:31;;;;;;;4.50;1.57;;;22.90;70.30;;;;;;5071497;28;20187;-66
2023/04/04 07:50:00;;;;;;;9.43;1.67;;;22.90;70.80;;;;;;5072965;28;20183;-67
2023/04/04 07:52:27;;;;;;;8.60;1.70;;;22.80;70.50;;;;;;5068528;28;20191;-66
2023/04/04 07:54:54;;;;;;;7.60;1.57;;;22.80;71.00;;;;;;5068318;28;20264;-65
2023/04/04 07:57:22;;;;;;;8.33;1.53;;;22.60;71.70;;;;;;5070926;28;20268;-67
2023/04/04 07:59:49;;;;;;;7.80;1.90;;;22.50;71.80;;;;;;5070994;28;20665;-67
2023/04/04 08:02:16;;;;;;;7.30;2.50;;;22.40;72.30;;;;;;5069318;28;20175;-66
2023/04/04 08:04:43;;;;;;;10.63;3.03;;;22.30;72.40;;;;;;5071352;28;20190;-65
2023/04/04 08:07:11;;;;;;;10.10;3.40;;;22.30;72.80;;;;;;5071780;28;20740;-68
2023/04/04 08:09:38;;;;;;;9.63;2.27;;;22.30;72.70;;;;;;5071685;28;20631;-66
2023/04/04 08:12:06;;;;;;;8.23;2.10;;;22.30;73.10;;;;;;5064771;28;20188;-67
2023/04/04 08:14:34;;;;;;;6.40;2.00;;;22.20;73.40;;;;;;5070223;28;20194;-67
2023/04/04 08:17:01;;;;;;;8.93;2.47;;;22.20;73.50;;;;;;5072692;28;20250;-67
2023/04/04 08:19:29;;;;;;;12.20;3.27;;;22.20;73.60;;;;;;5069121;28;20184;-66
2023/04/04 08:21:56;;;;;;;15.07;1.97;;;22.10;73.80;;;;;;5072085;28;20187;-67
2023/04/04 08:24:24;;;;;;;6.60;1.97;;;22.00;73.90;;;;;;5072274;28;20240;-65
2023/04/04 08:26:51;;;;;;;8.67;2.37;;;22.00;74.00;;;;;;5073117;28;20222;-67
2023/04/04 08:29:18;;;;;;;4.30;2.20;;;22.00;74.20;;;;;;5069968;28;20182;-66
2023/04/04 08:31:46;;;;;;;7.77;2.10;;;21.90;74.30;;;;;;5068562;28;20199;-65
2023/04/04 08:34:13;;;;;;;13.07;2.30;;;21.90;74.50;;;;;;5070006;28;20171;-66
2023/04/04 08:36:40;;;;;;;7.60;2.00;;;21.80;74.90;;;;;;5069004;28;20218;-66
2023/04/04 08:39:08;;;;;;;8.37;2.10;;;21.80;74.80;;;;;;5072312;28;20191;-66
2023/04/04 08:41:36;;;;;;;6.57;2.10;;;21.80;75.00;;;;;;5072130;28;20183;-67
2023/04/04 08:44:05;;;;;;;5.77;1.90;;;21.70;75.30;;;;;;5073781;28;20179;-66
2023/04/04 08:46:33;;;;;;;7.47;2.40;;;21.60;75.20;;;;;;5073465;28;20645;-65
2023/04/04 08:49:02;;;;;;;8.37;2.60;;;21.50;75.50;;;;;;5070431;28;20187;-67
2023/04/04 08:51:31;;;;;;;21.60;15.27;;;21.50;75.70;;;;;;5066893;28;20183;-67
2023/04/04 08:54:00;;;;;;;14.00;4.87;;;21.50;76.00;;;;;;5075862;28;20178;-67
2023/04/04 08:56:29;;;;;;;10.47;4.83;;;21.40;76.00;;;;;;5073082;28;20223;-67
2023/04/04 08:58:57;;;;;;;9.87;2.70;;;21.30;76.20;;;;;;5062976;28;20184;-67
2023/04/04 09:01:28;;;;;;;11.90;2.40;;;21.30;76.30;;;;;;5069103;28;20183;-67
2023/04/04 09:03:57;;;;;;;10.67;2.43;;;21.30;76.30;;;;;;5069444;28;20175;-65
2023/04/04 09:06:25;;;;;;;8.80;2.93;;;21.20;76.40;;;;;;5070732;28;20183;-75
2023/04/04 09:08:53;;;;;;;9.57;2.20;;;21.20;76.30;;;;;;5065947;28;20676;-66
2023/04/04 09:11:21;;;;;;;15.00;2.70;;;21.20;76.70;;;;;;5069707;28;20292;-66
2023/04/04 09:13:51;;;;;;;7.80;2.57;;;21.20;76.90;;;;;;5060788;28;20550;-65
2023/04/04 09:16:18;;;;;;;9.80;2.93;;;21.10;76.60;;;;;;5067218;28;20257;-66
2023/04/04 09:18:46;;;;;;;8.83;3.07;;;21.00;76.60;;;;;;5068140;28;20309;-66
2023/04/04 09:21:13;;;;;;;7.47;2.80;;;21.00;76.90;;;;;;5070575;28;20654;-65
2023/04/04 09:23:43;;;;;;;8.73;3.00;;;21.00;77.00;;;;;;5071305;28;20183;-66
2023/04/04 09:26:15;;;;;;;14.60;2.77;;;20.90;76.90;;;;;;5067399;28;20199;-66
2023/04/04 09:28:43;;;;;;;7.83;2.53;;;20.90;77.00;;;;;;5065604;28;20184;-66
2023/04/04 09:31:11;;;;;;;10.63;2.90;;;20.90;77.10;;;;;;5067768;28;20179;-66
2023/04/04 09:33:39;;;;;;;8.03;2.93;;;20.80;76.80;;;;;;5069734;28;20180;-66
2023/04/04 09:36:14;;;;;;;11.57;2.80;;;20.80;76.60;;;;;;5070126;28;20251;-64
2023/04/04 09:38:47;;;;;;;12.10;2.67;;;20.80;76.70;;;;;;5071337;28;20175;-66
2023/04/04 09:41:15;;;;;;;9.43;2.33;;;20.70;76.80;;;;;;5070999;28;20480;-66
2023/04/04 09:43:45;;;;;;;11.43;3.33;;;20.60;77.00;;;;;;5064101;28;20171;-66
2023/04/04 09:46:14;;;;;;;9.97;3.40;;;20.70;77.10;;;;;;5070184;28;20182;-68
2023/04/04 09:48:52;;;;;;;14.97;4.07;;;20.60;77.20;;;;;;5071180;28;20187;-65
2023/04/04 09:51:19;;;;;;;9.23;3.57;;;20.60;77.20;;;;;;5071427;28;20186;-65
2023/04/04 09:53:50;;;;;;;11.27;3.70;;;20.50;77.10;;;;;;5070125;28;20187;-65
2023/04/04 09:56:18;;;;;;;11.50;3.43;;;20.50;77.10;;;;;;5070051;28;20225;-66
2023/04/04 09:58:49;;;;;;;13.43;3.93;;;20.50;77.10;;;;;;5070272;28;20182;-66
2023/04/04 10:01:18;;;;;;;13.17;3.77;;;20.50;77.20;;;;;;5067071;28;20195;-65
2023/04/04 10:03:53;;;;;;;7.77;2.87;;;20.40;77.00;;;;;;5066782;28;20261;-67
2023/04/04 10:06:21;;;;;;;10.97;3.60;;;20.30;76.80;;;;;;5068978;28;20183;-64
2023/04/04 10:08:49;;;;;;;12.47;3.83;;;20.30;77.10;;;;;;5063562;28;20226;-66
2023/04/04 10:11:32;;;;;;;12.17;3.33;;;20.30;77.30;;;;;;5068375;28;20219;-65
2023/04/04 10:14:01;;;;;;;9.53;3.70;;;20.30;77.20;;;;;;5064834;28;20625;-65
2023/04/04 10:16:36;;;;;;;12.37;3.17;;;20.30;77.00;;;;;;5051557;28;20249;-66
2023/04/04 10:19:07;;;;;;;13.50;3.47;;;20.30;76.80;;;;;;5067652;28;20185;-65
2023/04/04 10:21:35;;;;;;;12.07;3.67;;;20.30;76.90;;;;;;5069651;28;20182;-65
2023/04/04 10:24:08;;;;;;;11.30;3.97;;;20.20;76.90;;;;;;5073786;28;20187;-66
2023/04/04 10:26:35;;;;;;;7.47;2.80;;;20.20;76.60;;;;;;5073484;28;20195;-65
2023/04/04 10:29:04;;;;;;;13.53;3.20;;;20.10;76.50;;;;;;5074092;28;20187;-66
2023/04/04 10:31:36;;;;;;;8.63;3.00;;;20.10;76.80;;;;;;5069810;28;20195;-67
2023/04/04 10:34:19;;;;;;;10.00;3.80;;;20.00;76.70;;;;;;5075879;28;20524;-65
2023/04/04 10:37:07;;;;;;;16.53;4.77;;;20.00;77.00;;;;;;5068906;28;20202;-66
2023/04/04 10:40:06;;;;;;;11.27;4.70;;;20.00;77.40;;;;;;5068672;28;20273;-66
2023/04/04 10:42:41;;;;;;;9.47;3.87;;;20.00;77.40;;;;;;5065675;28;20217;-66
2023/04/04 10:45:09;;;;;;;15.33;3.83;;;20.00;77.40;;;;;;5072392;28;20182;-66
2023/04/04 10:47:38;;;;;;;12.17;3.60;;;19.90;77.50;;;;;;5073740;28;20244;-66
2023/04/04 10:50:09;;;;;;;11.40;3.63;;;19.80;77.60;;;;;;5071584;28;20179;-66
2023/04/04 10:52:45;;;;;;;10.40;3.67;;;19.80;77.80;;;;;;5073531;28;20274;-66
2023/04/04 10:55:13;;;;;;;10.57;3.67;;;19.80;78.30;;;;;;5073284;28;20202;-66
2023/04/04 10:57:43;;;;;;;15.10;4.07;;;19.80;78.40;;;;;;5074334;28;20187;-66
2023/04/04 11:00:22;;;;;;;14.57;3.63;;;19.80;78.30;;;;;;5071946;28;20175;-65
2023/04/04 11:02:52;;;;;;;11.90;3.20;;;19.80;78.50;;;;;;5084038;28;20558;-66
2023/04/04 11:05:30;;;;;;;6.53;2.87;;;19.80;78.30;;;;;;5073721;28;20183;-66
2023/04/04 11:08:05;;;;;;;9.00;3.10;;;19.80;78.20;;;;;;5073299;28;20218;-65
2023/04/04 11:10:43;;;;;;;12.43;3.53;;;19.70;78.20;;;;;;5071321;28;20197;-65
2023/04/04 11:13:21;;;;;;;13.47;3.90;;;19.70;78.50;;;;;;5072090;28;20183;-65
2023/04/04 11:16:09;;;;;;;7.73;3.27;;;19.60;78.60;;;;;;5067123;28;20222;-66
2023/04/04 11:18:42;;;;;;;14.70;3.70;;;19.60;78.60;;;;;;5072716;28;20698;-65
2023/04/04 11:21:23;;;;;;;11.20;3.90;;;19.50;78.70;;;;;;5068875;28;20576;-65
2023/04/04 11:24:20;;;;;;;8.43;3.10;;;19.50;78.80;;;;;;5067872;28;20207;-65
2023/04/04 11:26:47;;;;;;;9.23;3.40;;;19.50;79.20;;;;;;5070136;28;20223;-64
2023/04/04 11:29:22;;;;;;;17.13;4.10;;;19.40;79.70;;;;;;5075378;28;20179;-65
2023/04/04 11:31:50;;;;;;;12.30;3.70;;;19.40;79.70;;;;;;5070257;28;20183;-65
2023/04/04 11:34:37;;;;;;;10.03;3.47;;;19.40;79.40;;;;;;5071894;28;20274;-66
2023/04/04 11:37:17;;;;;;;9.37;3.67;;;19.30;79.50;;;;;;5062745;28;20665;-68
2023/04/04 11:39:56;;;;;;;14.83;3.57;;;19.30;79.80;;;;;;5071309;28;20183;-65
2023/04/04 11:42:23;;;;;;;10.13;3.80;;;19.30;80.10;;;;;;5070104;28;20183;-64
2023/04/04 11:45:01;;;;;;;12.60;3.93;;;19.30;80.70;;;;;;5071992;28;20187;-65
2023/04/04 11:47:30;;;;;;;14.30;4.30;;;19.20;80.90;;;;;;5076049;28;20201;-65
2023/04/04 11:49:59;;;;;;;11.80;4.07;;;19.20;81.40;;;;;;5068527;28;20179;-64
2023/04/04 11:52:34;;;;;;;10.67;3.97;;;19.10;81.40;;;;;;5072417;28;20262;-65
2023/04/04 11:55:01;;;;;;;9.57;4.03;;;19.10;81.30;;;;;;5070360;28;20269;-65
2023/04/04 11:57:29;;;;;;;8.40;3.33;;;19.10;81.40;;;;;;5071525;28;20226;-65
2023/04/04 11:59:57;;;;;;;10.87;3.87;;;19.10;81.20;;;;;;5070213;28;20175;-65
2023/04/04 12:02:30;;;;;;;11.17;4.77;;;19.10;81.30;;;;;;5073952;28;20206;-67
2023/04/04 12:05:00;;;;;;;9.77;3.90;;;19.00;81.80;;;;;;5073169;28;20180;-65
2023/04/04 12:07:29;;;;;;;13.07;4.27;;;18.90;81.60;;;;;;5064509;28;20586;-66
2023/04/04 12:09:57;;;;;;;11.67;4.27;;;18.90;82.20;;;;;;5071363;28;20186;-65
2023/04/04 12:12:27;;;;;;;12.63;4.57;;;18.90;82.50;;;;;;5069001;28;20183;-65
2023/04/04 12:14:54;;;;;;;16.43;4.40;;;18.80;83.10;;;;;;5069117;28;20270;-65
2023/04/04 12:17:22;;;;;;;16.13;4.83;;;18.80;83.10;;;;;;5071385;28;20207;-77
2023/04/04 12:19:49;;;;;;;13.13;4.33;;;18.80;83.80;;;;;;5070514;28;20300;-74
2023/04/04 12:22:16;;;;;;;12.43;4.20;;;18.70;83.70;;;;;;5070826;28;20274;-69
2023/04/04 12:24:43;;;;;;;18.57;4.67;;;18.70;84.20;;;;;;5070463;28;20537;-66
2023/04/04 12:27:11;;;;;;;12.47;4.10;;;18.70;84.20;;;;;;5070270;28;20183;-72
2023/04/04 12:29:39;;;;;;;11.07;3.77;;;18.60;84.30;;;;;;5072042;28;20588;-65
2023/04/04 12:32:09;;;;;;;13.57;4.80;;;18.50;84.10;;;;;;5072145;28;20191;-65
2023/04/04 12:34:43;;;;;;;13.47;4.50;;;18.50;84.40;;;;;;5075260;28;20195;-66
2023/04/04 12:37:15;;;;;;;13.37;4.60;;;18.50;84.80;;;;;;5068361;28;20222;-67
2023/04/04 12:39:51;;;;;;;14.13;4.00;;;18.50;85.00;;;;;;5072429;28;20183;-68
2023/04/04 12:42:23;;;;;;;13.13;3.80;;;18.40;85.00;;;;;;5072746;28;20195;-66
2023/04/04 12:44:53;;;;;;;11.83;4.60;;;18.40;85.00;;;;;;5071989;28;20237;-73
2023/04/04 12:47:23;;;;;;;16.37;5.20;;;18.40;85.10;;;;;;5071415;28;20187;-70
2023/04/04 12:49:53;;;;;;;12.77;3.90;;;18.30;85.20;;;;;;5066603;28;20191;-76
2023/04/04 12:52:26;;;;;;;12.23;4.13;;;18.30;85.10;;;;;;5071814;28;20191;-66